Terminal Aerodrome Forecast
Issued by NWS

Home | Current Version | Previous Version | Text Only | Print | Product List | Glossary On
Versions: 1 2 3 4 5 6 7 8 9 10 11 12 13 14 15 16
000
FTUS43 KABR 060538
TAFMBG
TAF
KMBG 060538Z 0606/0706 13007KT P6SM BKN200
     FM061500 07006KT P6SM FEW250
     FM061700 02009KT P6SM SCT050
     FM062300 02018G26KT P6SM SCT250=

USA.gov is the U.S. government's official web portal to all federal, state and local government web resources and services.